PWSweather.com
Personal Weather Stations
Station Observations
ISCHONGA6
Schongau Forchet, SchongauDE 86956

Schongau ForchetSchongauDE 86956

Lat: 47.8049152, Lon: 10.886856699999953

Elevation: 2407

Station Type: Netatmo

Latest ConditionsUpdated 12:56:00 PM GMT+01:01 Sunday, Jan 20, 2019
Currently Today's Max Today's Min Today's Average
Temperature 30.7°F-0.7°C 30.7°F-0.7°C 14.0°F-10.0°C 17.7°F-7.9°C
Dew Point 21.9°F-5.6°C 21.9°F-5.6°C 8.8°F-12.9°C 12.2°F-11.0°C
Winds 0.7 mph W1.1 kmh W 1.8 mph -2.9 kmh - - 0.8 mph 1.3 kmh
Wind Gusts 1.8 mph2.9 kmh 3.1 mph5.0 kmh - -
Humidity 75% 87% 74% 84%
Pressure 29.88 in1011.9 mb 29.89 in1012.2 mb 29.82 in1009.8 mb -
Hour Temp Dew Point Humidity Winds Wind Gusts Pressure Precip Precip Rate Daily Precip Total
12:56 PM 30.7°F-0.7°C 21.9°F-5.6°C 75% 0.7 mph W1.1 kmh W 1.8 mph2.9 kmh 29.88 in1011.9 mb 0.00 in0.0 mm 0.00 in0.0 mm 0.00 in0.0 mm
12:46 PM 30.0°F-1.1°C 20.8°F-6.2°C 74% 0.7 mph SE1.1 kmh SE 1.3 mph2.1 kmh 29.88 in1011.9 mb 0.00 in0.0 mm 0.00 in0.0 mm 0.00 in0.0 mm
12:36 PM 29.7°F-1.3°C 21.2°F-6.0°C 76% 0.7 mph E1.1 kmh E 1.3 mph2.1 kmh 29.88 in1011.9 mb 0.00 in0.0 mm 0.00 in0.0 mm 0.00 in0.0 mm
12:26 PM 28.9°F-1.7°C 20.8°F-6.2°C 77% 1.3 mph SW2.1 kmh SW 3.1 mph5.0 kmh 29.88 in1011.9 mb 0.00 in0.0 mm 0.00 in0.0 mm 0.00 in0.0 mm
12:16 PM 28.4°F-2.0°C 19.6°F-6.9°C 75% 0.7 mph SSE1.1 kmh SSE 1.3 mph2.1 kmh 29.88 in1011.9 mb 0.00 in0.0 mm 0.00 in0.0 mm 0.00 in0.0 mm
12:05 PM 27.7°F-2.4°C 19.6°F-6.9°C 77% Calm Calm 1.3 mph2.1 kmh 29.88 in1011.9 mb 0.00 in0.0 mm 0.00 in0.0 mm 0.00 in0.0 mm
11:56 AM 26.8°F-2.9°C 19.0°F-7.2°C 78% 0.7 mph W1.1 kmh W 1.8 mph2.9 kmh 29.88 in1011.9 mb 0.00 in0.0 mm 0.00 in0.0 mm 0.00 in0.0 mm
11:46 AM 25.9°F-3.4°C 17.6°F-8.0°C 76% 0.7 mph W1.1 kmh W 2.5 mph4.0 kmh 29.88 in1011.9 mb 0.00 in0.0 mm 0.00 in0.0 mm 0.00 in0.0 mm
11:35 AM 25.7°F-3.5°C 17.6°F-8.0°C 77% 1.3 mph NW2.1 kmh NW 2.5 mph4.0 kmh 29.88 in1011.9 mb 0.00 in0.0 mm 0.00 in0.0 mm 0.00 in0.0 mm
11:25 AM 25.5°F-3.6°C 17.8°F-7.9°C 78% 1.3 mph WNW2.1 kmh WNW 3.1 mph5.0 kmh 29.89 in1012.2 mb 0.00 in0.0 mm 0.00 in0.0 mm 0.00 in0.0 mm
11:15 AM 25.2°F-3.8°C 18.5°F-7.5°C 81% 0.7 mph W1.1 kmh W 1.3 mph2.1 kmh 29.88 in1011.9 mb 0.00 in0.0 mm 0.00 in0.0 mm 0.00 in0.0 mm
11:06 AM 24.6°F-4.1°C 18.0°F-7.8°C 81% 0.7 mph E1.1 kmh E 1.3 mph2.1 kmh 29.88 in1011.9 mb 0.00 in0.0 mm 0.00 in0.0 mm 0.00 in0.0 mm
10:55 AM 24.1°F-4.4°C 18.1°F-7.7°C 83% 0.7 mph NE1.1 kmh NE 1.3 mph2.1 kmh 29.88 in1011.9 mb 0.00 in0.0 mm 0.00 in0.0 mm 0.00 in0.0 mm
10:45 AM 23.4°F-4.8°C 17.8°F-7.9°C 84% 0.7 mph W1.1 kmh W 1.8 mph2.9 kmh 29.88 in1011.9 mb 0.00 in0.0 mm 0.00 in0.0 mm 0.00 in0.0 mm
10:35 AM 22.8°F-5.1°C 16.9°F-8.4°C 83% 0.7 mph W1.1 kmh W 2.5 mph4.0 kmh 29.88 in1011.9 mb 0.00 in0.0 mm 0.00 in0.0 mm 0.00 in0.0 mm
10:25 AM 22.1°F-5.5°C 16.5°F-8.6°C 84% 1.3 mph NW2.1 kmh NW 2.5 mph4.0 kmh 29.88 in1011.9 mb 0.00 in0.0 mm 0.00 in0.0 mm 0.00 in0.0 mm
10:15 AM 21.6°F-5.8°C 16.3°F-8.7°C 85% 1.3 mph WNW2.1 kmh WNW 3.1 mph5.0 kmh 29.87 in1011.5 mb 0.00 in0.0 mm 0.00 in0.0 mm 0.00 in0.0 mm
10:05 AM 21.0°F-6.1°C 15.8°F-9.0°C 85% 0.7 mph SW1.1 kmh SW 1.8 mph2.9 kmh 29.87 in1011.5 mb 0.00 in0.0 mm 0.00 in0.0 mm 0.00 in0.0 mm
09:55 AM 20.5°F-6.4°C 15.3°F-9.3°C 85% 0.7 mph SW1.1 kmh SW 1.8 mph2.9 kmh 29.87 in1011.5 mb 0.00 in0.0 mm 0.00 in0.0 mm 0.00 in0.0 mm
09:45 AM 19.9°F-6.7°C 14.7°F-9.6°C 85% 0.7 mph SSW1.1 kmh SSW 1.3 mph2.1 kmh 29.87 in1011.5 mb 0.00 in0.0 mm 0.00 in0.0 mm 0.00 in0.0 mm
09:35 AM 19.6°F-6.9°C 14.4°F-9.8°C 85% 0.7 mph W1.1 kmh W 1.8 mph2.9 kmh 29.87 in1011.5 mb 0.00 in0.0 mm 0.00 in0.0 mm 0.00 in0.0 mm
09:25 AM 19.2°F-7.1°C 14.4°F-9.8°C 86% 0.7 mph W1.1 kmh W 1.3 mph2.1 kmh 29.87 in1011.5 mb 0.00 in0.0 mm 0.00 in0.0 mm 0.00 in0.0 mm
09:15 AM 18.5°F-7.5°C 14.0°F-10.0°C 87% 0.7 mph W1.1 kmh W 1.8 mph2.9 kmh 29.86 in1011.2 mb 0.00 in0.0 mm 0.00 in0.0 mm 0.00 in0.0 mm
09:05 AM 17.8°F-7.9°C 12.9°F-10.6°C 86% 0.7 mph W1.1 kmh W 1.3 mph2.1 kmh 29.86 in1011.2 mb 0.00 in0.0 mm 0.00 in0.0 mm 0.00 in0.0 mm
08:55 AM 16.9°F-8.4°C 12.0°F-11.1°C 86% 0.7 mph W1.1 kmh W 1.3 mph2.1 kmh 29.86 in1011.2 mb 0.00 in0.0 mm 0.00 in0.0 mm 0.00 in0.0 mm
08:45 AM 16.2°F-8.8°C 11.3°F-11.5°C 86% 0.7 mph W1.1 kmh W 1.8 mph2.9 kmh 29.85 in1010.8 mb 0.00 in0.0 mm 0.00 in0.0 mm 0.00 in0.0 mm
08:34 AM 15.6°F-9.1°C 10.9°F-11.7°C 86% 0.7 mph W1.1 kmh W 1.3 mph2.1 kmh 29.85 in1010.8 mb 0.00 in0.0 mm 0.00 in0.0 mm 0.00 in0.0 mm
08:25 AM 15.1°F-9.4°C 10.0°F-12.2°C 85% 0.7 mph W1.1 kmh W 1.3 mph2.1 kmh 29.85 in1010.8 mb 0.00 in0.0 mm 0.00 in0.0 mm 0.00 in0.0 mm
08:15 AM 14.9°F-9.5°C 9.9°F-12.3°C 85% 0.7 mph SW1.1 kmh SW 1.3 mph2.1 kmh 29.85 in1010.8 mb 0.00 in0.0 mm 0.00 in0.0 mm 0.00 in0.0 mm
08:04 AM 14.9°F-9.5°C 9.9°F-12.3°C 85% 0.7 mph W1.1 kmh W 1.3 mph2.1 kmh 29.84 in1010.5 mb 0.00 in0.0 mm 0.00 in0.0 mm 0.00 in0.0 mm
07:54 AM 14.7°F-9.6°C 9.7°F-12.4°C 85% 0.7 mph W1.1 kmh W 1.3 mph2.1 kmh 29.84 in1010.5 mb 0.00 in0.0 mm 0.00 in0.0 mm 0.00 in0.0 mm
07:44 AM 14.5°F-9.7°C 9.5°F-12.5°C 85% 0.7 mph SW1.1 kmh SW 1.8 mph2.9 kmh 29.83 in1010.2 mb 0.00 in0.0 mm 0.00 in0.0 mm 0.00 in0.0 mm
07:35 AM 14.5°F-9.7°C 9.1°F-12.7°C 84% 0.7 mph SW1.1 kmh SW 1.8 mph2.9 kmh 29.83 in1010.2 mb 0.00 in0.0 mm 0.00 in0.0 mm 0.00 in0.0 mm
07:24 AM 14.5°F-9.7°C 9.1°F-12.7°C 84% 0.7 mph W1.1 kmh W 1.8 mph2.9 kmh 29.83 in1010.2 mb 0.00 in0.0 mm 0.00 in0.0 mm 0.00 in0.0 mm
07:14 AM 14.7°F-9.6°C 9.7°F-12.4°C 85% 1.3 mph W2.1 kmh W 2.5 mph4.0 kmh 29.83 in1010.2 mb 0.00 in0.0 mm 0.00 in0.0 mm 0.00 in0.0 mm
07:04 AM 14.5°F-9.7°C 9.5°F-12.5°C 85% 0.7 mph W1.1 kmh W 1.8 mph2.9 kmh 29.83 in1010.2 mb 0.00 in0.0 mm 0.00 in0.0 mm 0.00 in0.0 mm
06:54 AM 14.5°F-9.7°C 9.5°F-12.5°C 85% 0.7 mph SW1.1 kmh SW 1.8 mph2.9 kmh 29.83 in1010.2 mb 0.00 in0.0 mm 0.00 in0.0 mm 0.00 in0.0 mm
06:44 AM 14.5°F-9.7°C 9.5°F-12.5°C 85% 0.7 mph W1.1 kmh W 1.8 mph2.9 kmh 29.83 in1010.2 mb 0.00 in0.0 mm 0.00 in0.0 mm 0.00 in0.0 mm
06:34 AM 14.5°F-9.7°C 9.5°F-12.5°C 85% 0.7 mph W1.1 kmh W 1.8 mph2.9 kmh 29.82 in1009.8 mb 0.00 in0.0 mm 0.00 in0.0 mm 0.00 in0.0 mm
06:24 AM 14.4°F-9.8°C 9.3°F-12.6°C 85% 0.7 mph W1.1 kmh W 1.3 mph2.1 kmh 29.83 in1010.2 mb 0.00 in0.0 mm 0.00 in0.0 mm 0.00 in0.0 mm
06:14 AM 14.4°F-9.8°C 9.3°F-12.6°C 85% 0.7 mph W1.1 kmh W 1.3 mph2.1 kmh 29.83 in1010.2 mb 0.00 in0.0 mm 0.00 in0.0 mm 0.00 in0.0 mm
06:04 AM 14.4°F-9.8°C 9.3°F-12.6°C 85% 0.7 mph SW1.1 kmh SW 1.3 mph2.1 kmh 29.83 in1010.2 mb 0.00 in0.0 mm 0.00 in0.0 mm 0.00 in0.0 mm
05:54 AM 14.2°F-9.9°C 9.1°F-12.7°C 85% 0.7 mph W1.1 kmh W 1.8 mph2.9 kmh 29.82 in1009.8 mb 0.00 in0.0 mm 0.00 in0.0 mm 0.00 in0.0 mm
05:43 AM 14.4°F-9.8°C 9.3°F-12.6°C 85% 0.7 mph SW1.1 kmh SW 1.3 mph2.1 kmh 29.83 in1010.2 mb 0.00 in0.0 mm 0.00 in0.0 mm 0.00 in0.0 mm
05:34 AM 14.4°F-9.8°C 9.3°F-12.6°C 85% 0.7 mph SW1.1 kmh SW 1.8 mph2.9 kmh 29.83 in1010.2 mb 0.00 in0.0 mm 0.00 in0.0 mm 0.00 in0.0 mm
05:24 AM 14.4°F-9.8°C 9.3°F-12.6°C 85% 1.3 mph SW2.1 kmh SW 1.8 mph2.9 kmh 29.83 in1010.2 mb 0.00 in0.0 mm 0.00 in0.0 mm 0.00 in0.0 mm
05:14 AM 14.2°F-9.9°C 9.1°F-12.7°C 85% Calm Calm 1.3 mph2.1 kmh 29.83 in1010.2 mb 0.00 in0.0 mm 0.00 in0.0 mm 0.00 in0.0 mm
05:03 AM 14.2°F-9.9°C 9.1°F-12.7°C 85% Calm Calm 1.3 mph2.1 kmh 29.83 in1010.2 mb 0.00 in0.0 mm 0.00 in0.0 mm 0.00 in0.0 mm
04:54 AM 14.0°F-10.0°C 9.0°F-12.8°C 85% 0.7 mph SW1.1 kmh SW 1.3 mph2.1 kmh 29.83 in1010.2 mb 0.00 in0.0 mm 0.00 in0.0 mm 0.00 in0.0 mm
04:44 AM 14.0°F-10.0°C 9.0°F-12.8°C 85% 1.8 mph WSW2.9 kmh WSW 3.1 mph5.0 kmh 29.83 in1010.2 mb 0.00 in0.0 mm 0.00 in0.0 mm 0.00 in0.0 mm
04:33 AM 14.2°F-9.9°C 9.1°F-12.7°C 85% 1.3 mph W2.1 kmh W 3.1 mph5.0 kmh 29.83 in1010.2 mb 0.00 in0.0 mm 0.00 in0.0 mm 0.00 in0.0 mm
04:23 AM 14.4°F-9.8°C 9.3°F-12.6°C 85% 1.3 mph WSW2.1 kmh WSW 1.8 mph2.9 kmh 29.83 in1010.2 mb 0.00 in0.0 mm 0.00 in0.0 mm 0.00 in0.0 mm
04:14 AM 14.4°F-9.8°C 9.3°F-12.6°C 85% 1.3 mph SW2.1 kmh SW 2.5 mph4.0 kmh 29.83 in1010.2 mb 0.00 in0.0 mm 0.00 in0.0 mm 0.00 in0.0 mm
04:04 AM 14.2°F-9.9°C 9.1°F-12.7°C 85% 0.7 mph WSW1.1 kmh WSW 1.3 mph2.1 kmh 29.83 in1010.2 mb 0.00 in0.0 mm 0.00 in0.0 mm 0.00 in0.0 mm
03:53 AM 14.4°F-9.8°C 9.3°F-12.6°C 85% 0.7 mph SW1.1 kmh SW 1.8 mph2.9 kmh 29.84 in1010.5 mb 0.00 in0.0 mm 0.00 in0.0 mm 0.00 in0.0 mm
03:43 AM 14.4°F-9.8°C 9.3°F-12.6°C 85% 0.7 mph SW1.1 kmh SW 1.8 mph2.9 kmh 29.83 in1010.2 mb 0.00 in0.0 mm 0.00 in0.0 mm 0.00 in0.0 mm
03:34 AM 14.2°F-9.9°C 9.1°F-12.7°C 85% 0.7 mph W1.1 kmh W 1.3 mph2.1 kmh 29.83 in1010.2 mb 0.00 in0.0 mm 0.00 in0.0 mm 0.00 in0.0 mm
03:23 AM 14.2°F-9.9°C 9.5°F-12.5°C 86% 0.7 mph W1.1 kmh W 1.8 mph2.9 kmh 29.83 in1010.2 mb 0.00 in0.0 mm 0.00 in0.0 mm 0.00 in0.0 mm
03:13 AM 14.0°F-10.0°C 9.0°F-12.8°C 85% Calm Calm 0.7 mph1.1 kmh 29.83 in1010.2 mb 0.00 in0.0 mm 0.00 in0.0 mm 0.00 in0.0 mm
03:03 AM 14.2°F-9.9°C 8.8°F-12.9°C 84% 0.7 mph W1.1 kmh W 1.8 mph2.9 kmh 29.83 in1010.2 mb 0.00 in0.0 mm 0.00 in0.0 mm 0.00 in0.0 mm
02:53 AM 14.4°F-9.8°C 9.0°F-12.8°C 84% 0.7 mph W1.1 kmh W 1.3 mph2.1 kmh 29.84 in1010.5 mb 0.00 in0.0 mm 0.00 in0.0 mm 0.00 in0.0 mm
02:43 AM 14.7°F-9.6°C 9.7°F-12.4°C 85% 0.7 mph W1.1 kmh W 1.8 mph2.9 kmh 29.83 in1010.2 mb 0.00 in0.0 mm 0.00 in0.0 mm 0.00 in0.0 mm
02:33 AM 14.7°F-9.6°C 9.7°F-12.4°C 85% 0.7 mph W1.1 kmh W 1.8 mph2.9 kmh 29.84 in1010.5 mb 0.00 in0.0 mm 0.00 in0.0 mm 0.00 in0.0 mm
02:23 AM 14.9°F-9.5°C 9.9°F-12.3°C 85% 0.7 mph W1.1 kmh W 1.3 mph2.1 kmh 29.84 in1010.5 mb 0.00 in0.0 mm 0.00 in0.0 mm 0.00 in0.0 mm
02:13 AM 14.7°F-9.6°C 9.7°F-12.4°C 85% 0.7 mph W1.1 kmh W 1.3 mph2.1 kmh 29.83 in1010.2 mb 0.00 in0.0 mm 0.00 in0.0 mm 0.00 in0.0 mm
02:03 AM 14.9°F-9.5°C 9.9°F-12.3°C 85% 0.7 mph W1.1 kmh W 1.8 mph2.9 kmh 29.83 in1010.2 mb 0.00 in0.0 mm 0.00 in0.0 mm 0.00 in0.0 mm
01:53 AM 15.3°F-9.3°C 9.9°F-12.3°C 84% 1.3 mph W2.1 kmh W 1.8 mph2.9 kmh 29.83 in1010.2 mb 0.00 in0.0 mm 0.00 in0.0 mm 0.00 in0.0 mm
01:43 AM 15.4°F-9.2°C 10.8°F-11.8°C 86% 0.7 mph W1.1 kmh W 1.3 mph2.1 kmh 29.84 in1010.5 mb 0.00 in0.0 mm 0.00 in0.0 mm 0.00 in0.0 mm
01:33 AM 15.4°F-9.2°C 10.8°F-11.8°C 86% Calm Calm 1.3 mph2.1 kmh 29.84 in1010.5 mb 0.00 in0.0 mm 0.00 in0.0 mm 0.00 in0.0 mm
01:23 AM 15.3°F-9.3°C 10.2°F-12.1°C 85% 0.7 mph W1.1 kmh W 1.3 mph2.1 kmh 29.83 in1010.2 mb 0.00 in0.0 mm 0.00 in0.0 mm 0.00 in0.0 mm
01:13 AM 15.4°F-9.2°C 10.4°F-12.0°C 85% 1.3 mph WNW2.1 kmh WNW 3.1 mph5.0 kmh 29.84 in1010.5 mb 0.00 in0.0 mm 0.00 in0.0 mm 0.00 in0.0 mm
01:02 AM 15.8°F-9.0°C 10.8°F-11.8°C 85% 0.7 mph SW1.1 kmh SW 1.3 mph2.1 kmh 29.83 in1010.2 mb 0.00 in0.0 mm 0.00 in0.0 mm 0.00 in0.0 mm
12:53 AM 15.8°F-9.0°C 10.8°F-11.8°C 85% 0.7 mph W1.1 kmh W 1.3 mph2.1 kmh 29.84 in1010.5 mb 0.00 in0.0 mm 0.00 in0.0 mm 0.00 in0.0 mm
12:43 AM 16.0°F-8.9°C 10.9°F-11.7°C 85% 0.7 mph W1.1 kmh W 1.3 mph2.1 kmh 29.84 in1010.5 mb 0.00 in0.0 mm 0.00 in0.0 mm 0.00 in0.0 mm
12:32 AM 16.2°F-8.8°C 11.1°F-11.6°C 85% Calm Calm 1.3 mph2.1 kmh 29.84 in1010.5 mb 0.00 in0.0 mm 0.00 in0.0 mm 0.00 in0.0 mm
12:22 AM 16.2°F-8.8°C 11.1°F-11.6°C 85% 0.7 mph W1.1 kmh W 1.3 mph2.1 kmh 29.84 in1010.5 mb 0.00 in0.0 mm 0.00 in0.0 mm 0.00 in0.0 mm
12:13 AM 16.5°F-8.6°C 11.5°F-11.4°C 85% 0.7 mph W1.1 kmh W 1.3 mph2.1 kmh 29.84 in1010.5 mb 0.00 in0.0 mm 0.00 in0.0 mm 0.00 in0.0 mm
12:03 AM 17.1°F-8.3°C 12.0°F-11.1°C 85% 0.7 mph W1.1 kmh W 1.3 mph2.1 kmh 29.84 in1010.5 mb 0.00 in0.0 mm 0.00 in0.0 mm 0.00 in0.0 mm